• Join FlightAware (Why Join?)
  • Login
  • US Flag 
Gobble Gobble! 
04:48AM EST


 

Airport Tracker/Info


-or-


 

Live Flight TrackerFlight Track Log ✈ UCA4793 ✈ 2013年 04月 26日 ✈ KSYR - KCLE

Flight Track Log - Related Links

Times and Time Zones

All times are in EDT time to prevent confusion due to time zone crossing. See the UCA4793 flight status page for this flight to view local times or setup timezone preferences in your user account.

Time Position Orientation Groundspeed Altitude Reporting Facility
EDT Latitude Longitude Course Direction KTS MPH feet Rate Location/Type
02:08PM 43.1078 -76.1261 267° West 127 146 1,000  Level Boston Center
02:09PM 43.1058 -76.1858 267° West 147 169 2,500 1,320 Climbing Boston Center
02:10PM 43.1058 -76.2514 270° West 172 198 3,900 1,380 Climbing Boston Center
02:12PM 43.1633 -76.3789 302° West 174 200 7,000 1,380 Climbing Cleveland Center
02:13PM 43.1864 -76.4400 297° West 180 207 8,500 1,380 Climbing Cleveland Center
02:14PM 43.2117 -76.5039 299° West 180 207 9,800 1,260 Climbing Cleveland Center
02:15PM 43.2200 -76.5689 280° West 179 206 11,100 1,320 Climbing Cleveland Center
02:16PM 43.2350 -76.6392 286° West 179 206 12,500 1,260 Climbing Cleveland Center
02:17PM 43.2456 -76.7039 283° West 185 213 13,700 1,260 Climbing Cleveland Center
02:18PM 43.2564 -76.7747 282° West 185 213 15,100 1,140 Climbing Cleveland Center
02:19PM 43.2689 -76.8453 284° West 185 213 16,000 420 Climbing Cleveland Center
02:20PM 43.2800 -76.9272 281° West 198 228 16,000  Level Cleveland Center
02:21PM 43.2953 -77.0175 283° West 222 255 16,000  Level Cleveland Center
02:22PM 43.3061 -77.0969 281° West 236 272 16,000  Level Cleveland Center
02:23PM 43.2814 -77.1811 248° West 228 262 16,000  Level Cleveland Center
02:24PM 43.2397 -77.2575 233° Southwest 234 269 16,000  Level Cleveland Center
02:25PM 43.2003 -77.3306 233° Southwest 251 289 16,000  Level Cleveland Center
02:26PM 43.1567 -77.4100 233° Southwest 256 295 16,000  Level Cleveland Center
02:27PM 43.1150 -77.4858 233° Southwest 256 295 16,000  Level Cleveland Center
02:28PM 43.0731 -77.5619 233° Southwest 256 295 16,000  Level Cleveland Center
02:29PM 43.0292 -77.6381 232° Southwest 256 295 16,000  Level Cleveland Center
02:30PM 42.9875 -77.7136 233° Southwest 256 295 16,000  Level Cleveland Center
02:31PM 42.9456 -77.7894 233° Southwest 256 295 16,000  Level Cleveland Center
02:32PM 42.9036 -77.8678 234° Southwest 256 295 16,000  Level Cleveland Center
02:33PM 42.8614 -77.9433 233° Southwest 256 295 16,000  Level Cleveland Center
02:34PM 42.8172 -78.0186 231° Southwest 256 295 16,000  Level Cleveland Center
02:35PM 42.7753 -78.0942 233° Southwest 256 295 16,000  Level Cleveland Center
02:36PM 42.7331 -78.1692 233° Southwest 256 295 16,000  Level Cleveland Center
02:37PM 42.6908 -78.2442 233° Southwest 256 295 16,000  Level Cleveland Center
02:38PM 42.6486 -78.3219 234° Southwest 256 295 16,000  Level Cleveland Center
02:39PM 42.6042 -78.3969 231° Southwest 256 295 16,000  Level Cleveland Center
02:40PM 42.5617 -78.4717 232° Southwest 256 295 16,000  Level Cleveland Center
02:41PM 42.5172 -78.5494 232° Southwest 256 295 16,000  Level Cleveland Center
02:42PM 42.4769 -78.6239 234° Southwest 256 295 16,000  Level Cleveland Center
02:43PM 42.4344 -78.6983 232° Southwest 256 295 16,000  Level Cleveland Center
02:44PM 42.3897 -78.7728 231° Southwest 256 295 16,000  Level Cleveland Center
02:45PM 42.3492 -78.8469 234° Southwest 256 295 16,000  Level Cleveland Center
02:46PM 42.2983 -78.9269 229° Southwest 256 295 16,000  Level Cleveland Center
02:47PM 42.2556 -79.0039 233° Southwest 256 295 16,000  Level Cleveland Center
02:48PM 42.2128 -79.0778 232° Southwest 256 295 16,000  Level Cleveland Center
02:49PM 42.1719 -79.1517 233° Southwest 256 295 16,000  Level Cleveland Center
02:50PM 42.1394 -79.2250 239° Southwest 256 295 16,000  Level Cleveland Center
02:51PM 42.1031 -79.3042 238° Southwest 251 289 16,000  Level Cleveland Center
02:52PM 42.0664 -79.3806 237° Southwest 256 295 16,000  Level Cleveland Center
02:53PM 42.0317 -79.4622 240° Southwest 256 295 16,000  Level Cleveland Center
02:54PM 41.9928 -79.5411 236° Southwest 256 295 16,000  Level Cleveland Center
02:55PM 41.9558 -79.6200 238° Southwest 256 295 16,000  Level Cleveland Center
02:56PM 41.9128 -79.7069 236° Southwest 261 300 16,000  Level Cleveland Center
02:57PM 41.8781 -79.7856 239° Southwest 255 293 16,000  Level Cleveland Center
02:58PM 41.8411 -79.8642 238° Southwest 255 293 16,000  Level Cleveland Center
02:59PM 41.8039 -79.9369 236° Southwest 261 300 16,000  Level Cleveland Center
03:00PM 41.7689 -80.0097 237° Southwest 255 293 16,000  Level Cleveland Center
03:01PM 41.7358 -80.0906 241° Southwest 255 293 16,000  Level Cleveland Center
03:02PM 41.7153 -80.1797 253° West 250 288 16,000 -120 Level Cleveland Center
03:03PM 41.6989 -80.2661 256° West 250 288 15,800 -540 Descending Cleveland Center
03:04PM 41.6806 -80.3636 256° West 256 295 15,000 -840 Descending Cleveland Center
03:05PM 41.6597 -80.4581 254° West 266 306 14,200 -900 Descending Cleveland Center
03:06PM 41.6411 -80.5664 257° West 266 306 13,300 -900 Descending Cleveland Center
03:07PM 41.6203 -80.6581 253° West 261 300 12,400 -900 Descending Cleveland Center
03:08PM 41.6014 -80.7553 255° West 261 300 11,500 -900 Descending Cleveland Center
03:09PM 41.5803 -80.8469 253° West 261 300 10,600 -960 Descending Cleveland Center
03:10PM 41.5633 -80.9356 256° West 262 302 9,700 -900 Descending Cleveland Center
03:11PM 41.5464 -81.0242 256° West 262 302 9,000 -420 Descending Cleveland Center
03:12PM 41.5356 -81.1131 261° West 237 273 9,000  Level Cleveland Center
03:13PM 41.5289 -81.1961 264° West 241 277 9,000 -480 Level Cleveland Center
03:14PM 41.5222 -81.2875 264° West 248 285 8,100 -900 Descending Cleveland Center
03:15PM 41.5194 -81.3819 268° West 259 298 7,200 -900 Descending Cleveland Center
03:16PM 41.5186 -81.4733 269° West 249 287 6,300 -720 Descending Cleveland Center
03:17PM 41.5203 -81.5539 272° West 191 220 5,800 -720 Descending Cleveland Center
03:18PM 41.5236 -81.6314 273° West 205 236 4,900 -900 Descending Cleveland Center
03:19PM 41.5189 -81.6953 264° West 171 197 4,000 -960 Descending Cleveland Center
03:20PM 41.4831 -81.7444 226° Southwest 190 219 3,000 -960 Descending Cleveland Center
03:21PM 41.4492 -81.7908 226° Southwest 173 199 2,100 -900 Descending Cleveland Center
03:22PM 41.4278 -81.8294 234° Southwest 126 145 1,200 -900 Descending Cleveland Center
03:24PM 41.4000 -81.8500 252° West  Level FlightAware Approximate
03:31PM 41.4094 -81.8547 252° West  Level Estimated